Terminal Aerodrome Forecast
Issued by NWS

Home | Current Version | Previous Version | Text Only | Print | Product List | Glossary On
Versions: 1 2 3 4 5 6 7 8 9 10 11 12 13 14 15 16 17 18 19 20 21 22 23 24 25 26 27 28 29 30 31 32 33
000
FTUS41 KOKX 231350 AAB
TAFGON
TAF AMD
KGON 231350Z 2314/2412 25004KT 4SM BR BKN005 BKN060
     FM231430 25006KT P6SM BKN008 BKN025 BKN070
     FM231530 26006KT P6SM SCT008 SCT025 SCT070
     FM231700 26007KT P6SM SCT050
     FM231900 27009KT P6SM FEW250
     FM240300 30008KT P6SM SKC
     FM240600 33008KT P6SM SKC
     FM240900 34004KT P6SM SKC=

USA.gov is the U.S. government's official web portal to all federal, state and local government web resources and services.